Pagrindinis puslapis
METAR-TAF:

METAR-TAF

Oro uostai :

Esbjergas, Danija

platuma: 55-32N, ilguma: 008-34E, Aukštis: 30 m

Dabartinis oras

Ataskaita buvo paskelbta 30 minutes, ne 07:20 UTC
Vėjas 10 kt iš Rytų
Temperatūra -1°C
Drėgmė 86%
Slėgis 1009 hPa
Matomumas: 5000 m

METAR: EKEB 100720Z AUTO 10010KT 5000 BKN020/// M01/M03 Q1009

Laikas: 08:50 (07:50 UTC)

Prognozė

Ataskaita buvo paskelbta 2 valandos ir 28 minutes, ne 05:22 UTC
Prognozė galioja nuo 10 metu 06 UTC su 10 metu 15 UTC
Vėjas 12 kt iš Rytų
Matomumas: 8000 m
Su prošvaistėmis ne aukštis 1800 ft
Laikinai
nuo 10 metu 06 UTC su 10 metu 09 UTC
Matomumas: 4000 m
Su prošvaistėmis ne aukštis 400 ft
rūkana
Laikinai
nuo 10 metu 09 UTC su 10 metu 15 UTC
Su prošvaistėmis ne aukštis 800 ft

TAF: EKEB 100522Z 1006/1015 10012KT 8000 BKN018 TEMPO 1006/1009 4000 BR BKN004 TEMPO 1009/1015 BKN008

Orai ataskaitas ir orų prognozės (METAR, TAF).

turimą stotys yra geltonos ir raudonos taškus žemėlapyje.

Perkelti pele per norėdami pamatyti stoties vardą.

Tada spustelėkite, norėdami matyti oro stebėjimo ir prognozės.

Norėdami pakeisti žemėlapį: spustelėkite ant žalios mygtukų su juodo kryžiaus žemyn,; žalią mygtuką su brūkšneliu, jei norite nutolinti; arba žalių rodyklių gretimoms žemėlapius.


METAR-TAF: